<h2>Celebrating 3 years‏</h2><p>Thanks all !!!</p> <h2>Ramadan Kareem</h2><p>رمـــضــان كريــم </p>

Oman Air Virtual

About Us. About Our VA

Book Virtual Flights

Fly from Muscat to the World Virtually!

OMV News & Updates

OMV Newest Pilot

OMV Statistics

Total Fights Loged Today: 0
Total Visits Past Hour: 2
Total Pilots Registered: 147
Total Flights Flown: 3271
Total Aircrafts Active: 58
Total Flight Schedules: 268
Total Miles Flown: 3452596
Total Hours Clocked: 8843.37
Total Passengers: 1,632,828
Total CodeShare flight added: 32 Flights
VA average landing rate: -22
Virtual Airline Rank: 132

Flight Tracking

LIVE Flight Tracking and Route

Destinations

View Our Wide Virtual Network

VA QUICK FACT:


Pilots

Aircraft in Fleet

Completed Flights

Schedules


Opreated by # No. Origin Destination Fleet / PIC
OMA5535 OOMS OERK A320-200

PIC: Sayed Zaafir
OMA823 OOMS WMKK A330-343

PIC: Abdullah Hamad Abdullah AlMarjibi
OMA821 OOMS WMKK A332-243

PIC: Abdulaziz Alquodi
Opreated by # No. Origin Destination Landing Rate Status
OMA668

View Report
OTHH OOMS Kiss Landing -80 ft/min Accepted
OMA936

View Report
OODQ OOMS -378 ft/min Rough landing Accepted
OMA 708

View Report
HTDA OOMS -433 ft/min Dangerous Landing Accepted
OMA935

View Report
OOMS OODQ -109 ft/min Normal landing Accepted
OMA708

View Report
HTZA HTDA -534 ft/min Dangerous Landing Accepted

Source: IVAO Metar and TAF Information.

Muscat International Airport (ICAO: OOMS)
METAR: OOMS 270950Z 07006KT 020V100 9000 NSC 39/16 Q0997 NOSIG
TAF: OOMS 270500Z 2706/2812 01010KT 8000 NSC BECMG 2718/2720 VRB03KT BECMG 2806/2808 36010KT

Salalah International Airport (ICAO: OOSA)
METAR: OOSA 270950Z 20015KT 9999 FEW014 BKN025 31/26 Q1003 NOSIG
TAF: OOSA 270540Z 2706/2812 20015KT 9999 FEW014 BKN025 BECMG 2718/2720 VRB03KT BECMG 2805/2807 20015KT

Oman Air Virtual is no way affiliated to the real Oman Air. How ever the brand logo, colors belongs to Oman Air and we use only for the Simulation Purpose for the virtual aviation enthousiast around the globe.

If you are looking for Oman Air website, we kindly request you to visit www.omanair.com

ATC Online IVAO
Pilots Online IVAO
OMV birthday
Member Online